PLYK1: Cottonwood River, Plymouth, KS

                                SHEF ID:       PLYK1     COTTONWOOD R NR PLYMOUTH, KS
STATION TYPE:
Regulating: Stage = 28.00, Flow = 11886

PRECIP STAGE STAGE(2) RIV-FLOW BAT-LOAD
in ft ft cfs volt
Ccp-Rev Ccp-Rev Ccp-Rev Ccp-Rev Ccp-Rev
(America/Chicago)
11/25 00:00 0.01 8.03 ---- 1385 12.48
11/25 01:00 0.00 8.02 ---- 1382 12.49
11/25 02:00 0.00 8.00 ---- 1376 12.48
11/25 03:00 0.00 8.00 ---- 1376 12.48
11/25 04:00 0.00 7.99 ---- 1373 12.48
11/25 05:00 0.00 7.99 ---- 1373 12.48
11/25 06:00 0.00 7.98 ---- 1370 12.47
11/25 07:00 0.00 7.98 ---- 1370 12.47
11/25 08:00 0.00 7.98 ---- 1370 12.47
11/25 09:00 0.00 7.97 ---- 1366 12.47
11/25 10:00 0.00 7.95 ---- 1360 13.34
11/25 11:00 0.00 7.93 ---- 1353 13.59
11/25 12:00 0.00 7.91 ---- 1347 13.57
11/25 13:00 0.00 7.88 ---- 1337 13.36
11/25 14:00 0.00 7.85 ---- 1327 13.44
11/25 15:00 0.00 7.83 ---- 1320 13.20
11/25 16:00 0.00 7.80 ---- 1311 13.16
11/25 17:00 0.00 7.78 ---- 1304 12.90
11/25 18:00 0.00 7.74 ---- 1291 12.79
11/25 19:00 0.00 7.71 ---- 1282 12.74
11/25 20:00 0.00 7.68 ---- 1272 12.71
11/25 21:00 0.00 7.65 ---- 1263 12.68
11/25 22:00 0.00 7.62 ---- 1253 12.65
11/25 23:00 0.00 7.58 ---- 1240 12.63
Data processed at Wed 26Nov2025 05:06 GMT

NOTICE: If you are parsing this page

Please convert to using our Data API. Starting January 1st, 2026 we will be migrating to: https://water.usace.army.mil with modern pages rendered in JavaScript. You will no longer be able to scrape this page! CWMSDataAPI (CDA)

Timeseries IDs (TSIDs)

TSIDs used from left to right in the data table
PLYM.Precip-Inc.Total.1Hour.1Hour.Ccp-Rev
PLYM.Stage.Inst.1Hour.0.Ccp-Rev
PLYM.Stage-Alt.Inst.1Hour.0.Ccp-Rev
PLYM.Flow.Inst.1Hour.0.Ccp-Rev
PLYM.Volt-Battery Load.Inst.1Hour.0.Ccp-Rev

                            

All information presented herein is the property of the government of the United States of America and may be revised or deleted at any time without prior notice. Dissemination of this information without the expressed written consent of the Public Affairs Office, Tulsa District U.S. Army Corps of Engineers is strictly prohibited. These data are gathered electronically and, as presented, have NOT undergone any form of quality control. These data are NOT guaranteed to be valid or correct.